Time;durP1;ratioP1;P1;durP2;ratioP2;P2;SDS_P1;SDS_P2;PMS_P1;PMS_P2;Temp;Humidity;BMP_temperature;BMP_pressure;BME280_temperature;BME280_humidity;BME280_pressure;Samples;Min_cycle;Max_cycle;Signal;HPM_P1;HPM_P2
2022/12/26 00:00:21;;;;;;;51.15;27.50;;;;;;;5.93;64.63;95531.78;4153686;28;20053;-76
2022/12/26 00:02:23;;;;;;;52.83;26.33;;;;;;;5.81;65.33;95536.09;4153219;28;20376;-75
2022/12/26 00:04:25;;;;;;;44.97;23.83;;;;;;;5.79;66.12;95537.16;4147717;28;20358;-76
2022/12/26 00:06:46;;;;;;;40.60;23.00;;;;;;;5.87;66.45;95529.63;4152230;28;20111;-74
2022/12/26 00:08:48;;;;;;;41.15;22.42;;;;;;;6.04;65.83;95537.06;4159284;28;20116;-77
2022/12/26 00:10:50;;;;;;;42.83;23.05;;;;;;;6.15;65.32;95520.69;4159271;28;20058;-76
2022/12/26 00:12:52;;;;;;;39.30;22.38;;;;;;;6.26;64.98;95530.31;4159785;28;20404;-75
2022/12/26 00:14:54;;;;;;;37.83;22.63;;;;;;;6.36;65.03;95536.50;4158696;28;20057;-75
2022/12/26 00:16:55;;;;;;;43.30;23.42;;;;;;;6.48;64.56;95545.19;4159046;28;20413;-75
2022/12/26 00:18:57;;;;;;;30.48;17.42;;;;;;;6.56;63.86;95537.66;4159467;28;20077;-76
2022/12/26 00:20:59;;;;;;;32.65;18.55;;;;;;;6.59;63.48;95541.78;4159182;28;20057;-74
2022/12/26 00:23:01;;;;;;;33.60;18.98;;;;;;;6.56;63.82;95543.69;4159130;28;20054;-75
2022/12/26 00:25:03;;;;;;;36.78;19.42;;;;;;;6.57;63.65;95547.94;4159463;28;20061;-77
2022/12/26 00:27:05;;;;;;;37.53;20.95;;;;;;;6.50;64.14;95543.31;4175575;28;20072;-79
2022/12/26 00:29:07;;;;;;;39.42;21.50;;;;;;;6.42;64.57;95546.47;4169340;28;20509;-76
2022/12/26 00:31:12;;;;;;;40.30;21.90;;;;;;;6.33;64.60;95547.16;4151729;28;20060;-76
2022/12/26 00:33:14;;;;;;;39.25;22.67;;;;;;;6.30;64.69;95555.16;4163249;28;20546;-75
2022/12/26 00:35:16;;;;;;;40.75;21.92;;;;;;;6.27;63.90;95542.38;4175499;28;20122;-76
2022/12/26 00:37:17;;;;;;;31.38;18.35;;;;;;;6.18;63.90;95548.28;4174129;28;20061;-76
2022/12/26 00:39:19;;;;;;;27.38;14.80;;;;;;;5.97;63.84;95542.84;4172979;28;20067;-76
2022/12/26 00:41:21;;;;;;;24.25;14.75;;;;;;;5.71;64.07;95545.50;4166527;28;20049;-76
2022/12/26 00:43:23;;;;;;;28.20;16.08;;;;;;;5.48;64.92;95560.09;4174951;28;20800;-75
2022/12/26 00:45:24;;;;;;;25.33;15.23;;;;;;;5.29;65.81;95556.19;4174715;28;20061;-76
2022/12/26 00:47:26;;;;;;;26.85;15.88;;;;;;;5.23;66.64;95559.19;4169285;28;20539;-74
2022/12/26 00:49:28;;;;;;;30.27;17.23;;;;;;;5.27;66.51;95554.59;4176813;28;20061;-77
2022/12/26 00:51:49;;;;;;;33.53;17.52;;;;;;;5.22;66.69;95554.94;4182159;28;20110;-73
2022/12/26 00:53:51;;;;;;;31.00;17.48;;;;;;;5.22;66.77;95554.94;4188131;28;20386;-73
2022/12/26 00:55:53;;;;;;;25.60;14.75;;;;;;;5.00;66.76;95549.56;4178975;28;20057;-76
2022/12/26 00:57:55;;;;;;;27.35;13.85;;;;;;;5.02;66.74;95558.06;4160490;28;20050;-76
2022/12/26 00:59:56;;;;;;;27.70;14.40;;;;;;;4.93;67.18;95559.53;4175272;28;20216;-73
2022/12/26 01:01:58;;;;;;;27.60;15.73;;;;;;;5.06;67.59;95560.34;4173551;28;20123;-74
2022/12/26 01:04:00;;;;;;;21.52;13.63;;;;;;;5.26;67.15;95556.38;4168090;28;20481;-74
2022/12/26 01:06:03;;;;;;;25.42;14.80;;;;;;;5.45;66.15;95558.53;4179521;28;20068;-74
2022/12/26 01:08:05;;;;;;;24.50;13.60;;;;;;;5.58;65.59;95555.91;4171383;28;20067;-78
2022/12/26 01:10:25;;;;;;;22.90;13.35;;;;;;;5.70;64.75;95560.25;4177950;28;20057;-74
2022/12/26 01:12:27;;;;;;;27.33;14.60;;;;;;;5.70;64.91;95567.22;4178578;28;20633;-75
2022/12/26 01:14:29;;;;;;;24.63;13.70;;;;;;;5.61;64.44;95565.25;4172080;28;20415;-76
2022/12/26 01:16:31;;;;;;;23.35;13.05;;;;;;;5.50;65.20;95563.41;4160140;28;20049;-76
2022/12/26 01:18:34;;;;;;;22.85;11.95;;;;;;;5.13;65.40;95573.75;4154645;28;20057;-77
2022/12/26 01:20:36;;;;;;;24.83;13.98;;;;;;;4.39;67.80;95589.03;4178926;28;20213;-76
2022/12/26 01:22:38;;;;;;;22.88;13.85;;;;;;;3.99;70.00;95588.97;4169594;28;20071;-77
2022/12/26 01:24:40;;;;;;;22.23;13.68;;;;;;;3.69;71.12;95599.50;4179539;28;20049;-77
2022/12/26 01:26:42;;;;;;;26.80;14.68;;;;;;;3.78;71.93;95605.88;4178871;28;20057;-80
2022/12/26 01:28:43;;;;;;;25.90;15.13;;;;;;;3.95;72.15;95594.44;4178756;28;20083;-77
2022/12/26 01:30:45;;;;;;;28.40;15.50;;;;;;;4.25;71.09;95591.66;4175433;28;20555;-76
2022/12/26 01:32:47;;;;;;;28.92;16.38;;;;;;;4.58;69.43;95590.41;4173218;28;20076;-75
2022/12/26 01:34:50;;;;;;;26.27;15.90;;;;;;;4.82;68.95;95583.59;4174725;28;20071;-74
2022/12/26 01:36:53;;;;;;;27.67;16.67;;;;;;;5.05;67.84;95589.00;4156497;28;20042;-75
2022/12/26 01:38:54;;;;;;;26.17;16.13;;;;;;;5.23;67.53;95590.38;4174081;28;20126;-74
2022/12/26 01:43:16;;;;;;;29.23;17.48;;;;;;;5.52;66.42;95582.34;4168369;28;20107;-74
2022/12/26 01:45:29;;;;;;;27.02;16.73;;;;;;;5.51;66.41;95571.13;4161765;28;20152;-75
2022/12/26 01:47:48;;;;;;;22.70;14.90;;;;;;;5.56;65.90;95569.97;4172128;28;20053;-74
2022/12/26 01:49:52;;;;;;;26.85;17.25;;;;;;;5.56;66.23;95562.16;4178287;28;20053;-74
2022/12/26 01:51:58;;;;;;;26.63;15.68;;;;;;;5.66;65.85;95566.63;4160163;28;20156;-74
2022/12/26 01:54:01;;;;;;;26.67;16.30;;;;;;;5.67;65.41;95559.63;4148225;28;20642;-76
2022/12/26 01:56:31;;;;;;;26.75;15.80;;;;;;;5.62;65.52;95567.75;4178148;28;20045;-75
2022/12/26 01:58:37;;;;;;;30.20;16.70;;;;;;;5.68;65.50;95566.50;4158478;28;20572;-75
2022/12/26 02:00:39;;;;;;;29.40;17.33;;;;;;;5.69;65.17;95558.59;4158535;28;20488;-76
2022/12/26 02:07:23;;;;;;;30.40;17.60;;;;;;;5.81;65.27;95563.84;4165190;28;20064;-76
2022/12/26 02:09:25;;;;;;;33.22;17.83;;;;;;;5.78;65.54;95559.72;4147377;28;20057;-75
2022/12/26 02:11:32;;;;;;;32.28;18.15;;;;;;;5.80;65.23;95551.81;4166565;28;20109;-75
2022/12/26 02:13:35;;;;;;;27.63;17.73;;;;;;;5.80;65.54;95557.00;4178134;28;20330;-76
2022/12/26 02:15:37;;;;;;;30.38;18.45;;;;;;;5.74;65.46;95556.50;4160271;28;20053;-75
2022/12/26 02:17:39;;;;;;;28.13;17.33;;;;;;;5.71;65.01;95553.28;4160893;28;20144;-74
2022/12/26 02:19:47;;;;;;;33.92;18.25;;;;;;;5.70;65.52;95557.66;4168683;28;20148;-77
2022/12/26 02:22:15;;;;;;;28.23;17.08;;;;;;;5.73;65.81;95556.63;4165986;28;20104;-77
2022/12/26 02:24:41;;;;;;;25.52;16.13;;;;;;;5.75;65.47;95545.16;4165263;28;20061;-77
2022/12/26 02:27:21;;;;;;;31.77;17.73;;;;;;;5.74;65.43;95543.50;4169430;28;20499;-78
2022/12/26 02:29:29;;;;;;;28.35;16.85;;;;;;;5.74;64.91;95546.13;4168174;28;20041;-78
2022/12/26 02:32:08;;;;;;;36.30;17.10;;;;;;;5.71;65.27;95545.50;4160172;28;20424;-77
2022/12/26 02:34:45;;;;;;;31.55;17.20;;;;;;;5.74;65.51;95540.06;4160699;28;20049;-76
2022/12/26 02:36:57;;;;;;;39.38;19.60;;;;;;;5.71;65.12;95546.31;4173538;28;20408;-76
2022/12/26 02:39:14;;;;;;;31.50;17.90;;;;;;;5.70;65.21;95547.25;4176905;28;20128;-76
2022/12/26 02:42:00;;;;;;;29.98;18.02;;;;;;;5.60;65.57;95555.81;4170148;28;20077;-77
2022/12/26 02:47:01;;;;;;;31.85;18.77;;;;;;;5.52;66.03;95540.75;4172270;28;20151;-76
2022/12/26 02:48:57;;;;;;;33.33;18.48;;;;;;;5.44;65.77;95543.03;4150984;28;20419;-78
2022/12/26 03:13:36;;;;;;;34.35;19.85;;;;;;;5.05;67.54;95537.91;4174601;28;20488;-75
2022/12/26 03:18:16;;;;;;;30.88;19.00;;;;;;;5.21;66.75;95550.69;4164288;28;20108;-76
2022/12/26 03:20:27;;;;;;;28.73;18.65;;;;;;;5.25;66.44;95549.53;4160063;28;20049;-76
2022/12/26 03:22:52;;;;;;;30.08;18.17;;;;;;;5.20;66.48;95551.59;4134705;28;20066;-78
2022/12/26 03:27:14;;;;;;;33.97;19.60;;;;;;;4.91;67.42;95545.81;4155144;28;20450;-76
2022/12/26 03:31:38;;;;;;;34.75;19.05;;;;;;;4.99;67.32;95560.84;4162301;28;20143;-77
2022/12/26 03:36:10;;;;;;;28.52;19.05;;;;;;;5.11;66.76;95568.66;4161362;28;20114;-77
2022/12/26 03:38:13;;;;;;;31.42;19.25;;;;;;;5.15;66.93;95564.09;4176994;28;20106;-79
2022/12/26 04:19:42;;;;;;;21.00;13.30;;;;;;;5.20;66.60;95568.97;4162023;28;20056;-76
2022/12/26 04:46:03;;;;;;;27.45;15.38;;;;;;;4.93;66.67;95569.91;4156775;28;20052;-76
2022/12/26 04:50:26;;;;;;;23.67;14.20;;;;;;;4.82;66.80;95577.56;4162190;28;20053;-77
2022/12/26 04:52:53;;;;;;;22.35;14.63;;;;;;;4.86;67.41;95576.44;4160681;28;20272;-77
2022/12/26 04:54:49;;;;;;;26.30;14.45;;;;;;;4.85;66.95;95580.78;4171551;28;20118;-76
2022/12/26 04:56:52;;;;;;;27.67;14.45;;;;;;;4.88;66.12;95578.00;4163525;28;20053;-77
2022/12/26 04:58:54;;;;;;;23.90;14.70;;;;;;;4.93;66.58;95585.50;4177105;28;20099;-76
2022/12/26 05:09:32;;;;;;;23.05;13.85;;;;;;;4.97;66.19;95583.50;4176740;28;20057;-78
2022/12/26 05:10:27;;;;;;;21.65;13.77;;;;;;;5.09;66.67;95580.06;4172353;28;20049;-76
2022/12/26 05:12:29;;;;;;;22.02;13.48;;;;;;;5.10;66.07;95581.75;4149258;28;20387;-77
2022/12/26 05:14:34;;;;;;;23.60;14.13;;;;;;;5.06;65.70;95591.50;4166271;28;20049;-77
2022/12/26 05:30:39;;;;;;;22.92;13.63;;;;;;;3.41;71.28;95628.84;4169775;28;20053;-78
2022/12/26 05:35:01;;;;;;;20.40;13.02;;;;;;;3.15;73.07;95626.06;4168233;28;20204;-78
2022/12/26 05:37:03;;;;;;;20.05;11.63;;;;;;;3.11;72.88;95624.56;4173545;28;20045;-78
2022/12/26 05:39:06;;;;;;;22.17;13.50;;;;;;;2.59;73.28;95612.94;4166119;28;20385;-77
2022/12/26 05:41:08;;;;;;;20.23;12.70;;;;;;;2.77;74.48;95617.97;4167901;28;20059;-77
2022/12/26 05:43:09;;;;;;;24.92;16.40;;;;;;;2.59;73.96;95615.50;4175178;28;20053;-78
2022/12/26 05:45:11;;;;;;;35.90;23.42;;;;;;;2.42;74.67;95613.06;4175546;28;20103;-78
2022/12/26 05:47:13;;;;;;;47.17;29.73;;;;;;;2.24;75.61;95617.53;4176114;28;20111;-78
2022/12/26 05:49:14;;;;;;;43.65;28.83;;;;;;;2.30;75.81;95619.75;4179366;28;20140;-78
2022/12/26 05:51:16;;;;;;;40.72;27.95;;;;;;;2.48;76.02;95617.06;4171090;28;20141;-80
2022/12/26 05:53:18;;;;;;;40.47;25.20;;;;;;;2.73;76.10;95612.16;4162754;28;20057;-80
2022/12/26 05:55:19;;;;;;;43.33;25.80;;;;;;;3.03;74.58;95619.00;4176096;28;20502;-77
2022/12/26 05:57:21;;;;;;;39.28;24.60;;;;;;;3.31;73.18;95612.19;4168415;28;20053;-78
2022/12/26 05:59:23;;;;;;;41.75;25.20;;;;;;;3.54;71.88;95606.47;4170238;28;20532;-78
2022/12/26 06:01:26;;;;;;;40.10;25.52;;;;;;;3.75;71.31;95611.25;4175386;28;20060;-79
2022/12/26 06:03:28;;;;;;;39.22;24.55;;;;;;;3.94;70.54;95614.38;4163282;28;20057;-79
2022/12/26 06:05:30;;;;;;;38.33;22.42;;;;;;;4.04;69.98;95605.09;4160018;28;20495;-80
2022/12/26 06:07:32;;;;;;;32.47;20.70;;;;;;;4.14;69.35;95605.31;4177845;28;20045;-79
2022/12/26 06:09:34;;;;;;;31.38;19.73;;;;;;;4.24;69.03;95621.16;4178085;28;20455;-78
2022/12/26 06:11:35;;;;;;;30.88;19.98;;;;;;;4.26;68.49;95614.09;4166605;28;20132;-76
2022/12/26 06:13:37;;;;;;;34.15;21.73;;;;;;;4.25;68.83;95609.81;4162348;28;20111;-77
2022/12/26 06:15:39;;;;;;;34.53;21.15;;;;;;;4.22;68.72;95621.22;4162300;28;20132;-77
2022/12/26 06:17:41;;;;;;;35.00;21.73;;;;;;;4.17;69.40;95617.25;4162080;28;20049;-79
2022/12/26 06:19:43;;;;;;;36.13;21.98;;;;;;;4.22;69.56;95623.00;4162368;28;20087;-77
2022/12/26 06:21:47;;;;;;;36.22;21.40;;;;;;;4.35;69.65;95623.88;4162308;28;20064;-77
2022/12/26 06:23:49;;;;;;;33.60;20.85;;;;;;;4.50;69.09;95624.66;4144452;28;20079;-78
2022/12/26 06:25:55;;;;;;;32.88;20.45;;;;;;;4.57;68.24;95625.91;4162595;28;20085;-77
2022/12/26 06:27:57;;;;;;;31.40;19.52;;;;;;;4.68;68.35;95626.03;4162464;28;20057;-77
2022/12/26 06:29:58;;;;;;;31.90;19.58;;;;;;;4.80;67.88;95627.00;4165646;28;20049;-78
2022/12/26 06:32:00;;;;;;;29.42;18.60;;;;;;;4.83;67.59;95629.38;4169537;28;20053;-78
2022/12/26 06:34:02;;;;;;;32.63;18.63;;;;;;;5.22;67.31;95627.66;4161961;28;20058;-80
2022/12/26 06:36:12;;;;;;;30.55;18.55;;;;;;;5.87;65.05;95624.09;4175178;28;20049;-78
2022/12/26 06:38:14;;;;;;;29.88;17.95;;;;;;;6.48;62.46;95631.91;4161386;28;20063;-77
2022/12/26 06:40:16;;;;;;;32.20;17.40;;;;;;;7.04;61.67;95628.69;4171398;28;20148;-79
2022/12/26 06:42:17;;;;;;;24.80;16.63;;;;;;;7.49;60.67;95631.38;4177741;28;20049;-79
2022/12/26 06:44:19;;;;;;;33.72;17.65;;;;;;;7.51;58.79;95633.88;4177692;28;20057;-78
2022/12/26 06:46:23;;;;;;;26.45;16.50;;;;;;;7.40;59.12;95634.69;4169420;28;20132;-78
2022/12/26 06:48:26;;;;;;;30.77;17.80;;;;;;;7.13;59.69;95630.59;4170290;28;20469;-79
2022/12/26 06:50:27;;;;;;;33.55;18.90;;;;;;;6.92;60.03;95633.03;4161747;28;20357;-77
2022/12/26 06:52:29;;;;;;;31.50;18.17;;;;;;;6.77;60.63;95634.16;4174709;28;20453;-79
2022/12/26 06:54:31;;;;;;;29.83;17.85;;;;;;;6.68;60.99;95634.84;4180764;28;20053;-78
2022/12/26 06:56:33;;;;;;;30.75;18.38;;;;;;;6.59;61.60;95640.72;4183122;28;20123;-78
2022/12/26 06:58:35;;;;;;;29.88;17.50;;;;;;;6.46;61.79;95636.41;4177687;28;20083;-77
2022/12/26 07:00:37;;;;;;;30.58;18.52;;;;;;;6.40;62.10;95639.44;4176871;28;20448;-78
2022/12/26 07:02:39;;;;;;;29.88;18.08;;;;;;;6.32;62.46;95639.16;4172677;28;20057;-77
2022/12/26 07:04:41;;;;;;;30.13;17.88;;;;;;;6.08;62.61;95639.97;4169254;28;20049;-79
2022/12/26 07:06:42;;;;;;;26.48;16.73;;;;;;;6.03;63.40;95634.25;4161351;28;20115;-79
2022/12/26 07:08:44;;;;;;;30.92;17.33;;;;;;;6.05;63.66;95658.41;4161864;28;20148;-76
2022/12/26 07:10:46;;;;;;;29.60;18.50;;;;;;;6.08;63.49;95660.78;4172133;28;20234;-78
2022/12/26 07:12:48;;;;;;;28.23;17.48;;;;;;;6.14;63.72;95655.13;4170035;28;20053;-80
2022/12/26 07:14:49;;;;;;;27.90;18.55;;;;;;;6.12;63.65;95659.63;4164827;28;20061;-79
2022/12/26 07:16:52;;;;;;;28.45;17.38;;;;;;;6.18;63.32;95663.56;4160801;28;20783;-77
2022/12/26 07:18:55;;;;;;;28.85;17.52;;;;;;;6.26;63.56;95663.88;4165747;28;20064;-78
2022/12/26 07:20:57;;;;;;;36.38;20.35;;;;;;;6.37;62.61;95657.91;4162679;28;20056;-79
2022/12/26 07:22:59;;;;;;;34.97;19.80;;;;;;;6.39;63.11;95655.16;4165473;28;20049;-78
2022/12/26 07:25:01;;;;;;;33.78;18.48;;;;;;;6.48;61.96;95670.13;4169527;28;20107;-77
2022/12/26 07:27:03;;;;;;;28.75;17.17;;;;;;;6.47;62.20;95658.03;4155072;28;20054;-78
2022/12/26 07:29:04;;;;;;;33.38;17.60;;;;;;;6.46;62.15;95667.63;4171725;28;20064;-79
2022/12/26 07:31:06;;;;;;;28.75;16.55;;;;;;;6.43;62.42;95667.00;4168990;28;20061;-79
2022/12/26 07:33:08;;;;;;;27.73;18.50;;;;;;;6.46;62.76;95659.00;4164415;28;20144;-78
2022/12/26 07:35:09;;;;;;;29.83;17.20;;;;;;;6.54;62.41;95654.91;4165325;28;20053;-77
2022/12/26 07:37:11;;;;;;;28.90;16.45;;;;;;;6.66;62.20;95657.56;4154913;28;20065;-75
2022/12/26 07:39:13;;;;;;;26.75;16.52;;;;;;;6.69;61.74;95647.75;4167681;28;20057;-80
2022/12/26 07:43:35;;;;;;;26.63;16.88;;;;;;;6.85;61.64;95646.63;4164941;28;20473;-74
2022/12/26 07:45:37;;;;;;;25.80;16.52;;;;;;;6.86;61.37;95649.13;4163375;28;20065;-77
2022/12/26 07:47:46;;;;;;;26.58;16.40;;;;;;;7.01;62.85;95651.53;4172048;28;20053;-78
2022/12/26 07:49:48;;;;;;;27.83;16.25;;;;;;;7.09;62.25;95654.41;4177206;28;20072;-76
2022/12/26 07:51:49;;;;;;;28.58;17.38;;;;;;;7.13;62.20;95640.19;4168467;28;20060;-79
2022/12/26 07:53:51;;;;;;;29.48;17.63;;;;;;;7.13;61.13;95645.41;4165662;28;20059;-76
2022/12/26 07:55:58;;;;;;;25.67;16.23;;;;;;;7.16;62.59;95645.16;4168501;28;20052;-78
2022/12/26 07:57:59;;;;;;;34.25;17.25;;;;;;;7.30;63.33;95644.97;4154875;28;20469;-76
2022/12/26 08:00:03;;;;;;;27.50;16.55;;;;;;;7.36;61.58;95646.28;4166662;28;20057;-77
2022/12/26 08:02:05;;;;;;;26.55;16.75;;;;;;;7.36;61.41;95641.91;4172974;28;20459;-76
2022/12/26 08:04:08;;;;;;;24.10;16.95;;;;;;;7.47;61.99;95646.31;4163782;28;20084;-77
2022/12/26 08:06:11;;;;;;;26.98;17.85;;;;;;;7.57;61.61;95639.44;4149557;28;20085;-81
2022/12/26 08:08:13;;;;;;;28.27;17.67;;;;;;;7.69;61.30;95642.88;4172136;28;20061;-83
2022/12/26 08:10:16;;;;;;;26.88;18.40;;;;;;;7.79;60.97;95645.63;4158972;28;20057;-76
2022/12/26 08:12:20;;;;;;;29.45;18.38;;;;;;;7.68;60.27;95637.78;4168598;28;20061;-78
2022/12/26 08:14:24;;;;;;;32.15;19.05;;;;;;;7.71;61.30;95642.75;4180136;28;20107;-80
2022/12/26 08:16:25;;;;;;;26.23;17.38;;;;;;;7.80;61.24;95640.25;4157849;28;20632;-80
2022/12/26 08:18:27;;;;;;;28.10;17.80;;;;;;;7.91;61.02;95641.22;4174127;28;20172;-78
2022/12/26 08:20:29;;;;;;;31.83;18.17;;;;;;;8.01;60.31;95652.59;4174882;28;20717;-79
2022/12/26 08:22:31;;;;;;;31.27;18.42;;;;;;;8.05;59.79;95651.41;4177606;28;20148;-79
2022/12/26 08:24:32;;;;;;;31.98;17.73;;;;;;;7.78;59.28;95663.03;4158947;28;20137;-78
2022/12/26 08:26:34;;;;;;;31.25;19.38;;;;;;;7.56;60.33;95652.59;4151474;28;20064;-79
2022/12/26 08:28:36;;;;;;;33.33;20.08;;;;;;;7.61;60.83;95655.66;4159780;28;20386;-77
2022/12/26 08:30:40;;;;;;;34.05;19.50;;;;;;;7.78;61.07;95654.38;4157144;28;20053;-74
2022/12/26 08:32:41;;;;;;;30.08;18.60;;;;;;;7.93;60.08;95662.78;4141355;28;20065;-78
2022/12/26 08:34:47;;;;;;;29.15;19.00;;;;;;;8.03;59.42;95662.94;4174969;28;20045;-75
2022/12/26 08:36:51;;;;;;;35.38;19.60;;;;;;;8.13;59.70;95656.88;4175042;28;20118;-75
2022/12/26 08:38:53;;;;;;;31.40;19.05;;;;;;;8.23;59.58;95651.72;4171757;28;20053;-72
2022/12/26 08:40:56;;;;;;;34.05;19.88;;;;;;;8.25;58.95;95654.22;4177463;28;20053;-76
2022/12/26 08:42:57;;;;;;;32.10;20.65;;;;;;;8.26;58.96;95648.91;4178002;28;20052;-78
2022/12/26 08:45:19;;;;;;;34.33;20.67;;;;;;;8.28;58.96;95648.75;4167999;28;20053;-82
2022/12/26 08:47:25;;;;;;;37.75;22.50;;;;;;;8.37;59.20;95641.03;4177977;28;20056;-80
2022/12/26 08:49:27;;;;;;;34.40;22.75;;;;;;;7.88;59.04;95637.06;4151093;28;20086;-77
2022/12/26 08:51:28;;;;;;;33.55;21.58;;;;;;;7.53;60.26;95627.59;4155690;28;20049;-75
2022/12/26 08:53:31;;;;;;;37.88;22.17;;;;;;;7.32;61.69;95632.66;4168753;28;20199;-77
2022/12/26 08:55:33;;;;;;;35.60;23.23;;;;;;;7.22;61.97;95625.66;4164632;28;20436;-77
2022/12/26 08:57:35;;;;;;;37.90;22.83;;;;;;;7.27;61.43;95624.38;4162606;28;20124;-79
2022/12/26 08:59:37;;;;;;;32.28;21.70;;;;;;;7.34;62.00;95622.94;4164091;28;20065;-72
2022/12/26 09:01:39;;;;;;;33.50;21.60;;;;;;;7.53;61.95;95624.16;4175515;28;20553;-80
2022/12/26 09:03:41;;;;;;;33.20;19.70;;;;;;;7.75;61.62;95618.94;4147869;28;20064;-81
2022/12/26 09:05:44;;;;;;;31.98;18.55;;;;;;;8.05;60.86;95621.88;4151320;28;20136;-75
2022/12/26 09:07:46;;;;;;;30.08;19.02;;;;;;;7.97;61.48;95618.06;4164799;28;20520;-77
2022/12/26 09:09:48;;;;;;;30.42;19.88;;;;;;;8.10;60.38;95622.34;4168634;28;20057;-77
2022/12/26 09:11:50;;;;;;;34.13;20.35;;;;;;;8.19;60.34;95613.78;4173866;28;20131;-75
2022/12/26 09:13:52;;;;;;;33.40;21.50;;;;;;;8.35;59.45;95618.63;4175868;28;20069;-76
2022/12/26 09:15:54;;;;;;;31.02;21.38;;;;;;;8.34;59.09;95616.94;4180350;28;20055;-76
2022/12/26 09:17:56;;;;;;;37.08;23.88;;;;;;;8.27;59.85;95626.22;4171308;28;20056;-75
2022/12/26 09:19:58;;;;;;;40.42;25.40;;;;;;;8.33;59.89;95615.31;4178007;28;20049;-76
2022/12/26 09:24:21;;;;;;;49.53;28.80;;;;;;;8.77;58.40;95618.72;4131496;28;20107;-76
2022/12/26 09:26:24;;;;;;;43.03;28.08;;;;;;;8.96;58.52;95618.88;4173025;28;20068;-76
2022/12/26 09:28:26;;;;;;;47.45;31.80;;;;;;;9.13;57.52;95612.25;4160924;28;20049;-76
2022/12/26 09:30:28;;;;;;;53.42;34.15;;;;;;;8.90;56.91;95616.75;4161512;28;20468;-75
2022/12/26 09:32:34;;;;;;;58.42;34.97;;;;;;;8.35;58.36;95618.63;4170547;28;20428;-75
2022/12/26 09:34:36;;;;;;;55.67;35.42;;;;;;;8.40;58.70;95616.47;4170866;28;20053;-75
2022/12/26 09:36:38;;;;;;;54.20;35.05;;;;;;;8.29;58.07;95612.09;4177385;28;20076;-78
2022/12/26 09:38:40;;;;;;;58.65;36.50;;;;;;;8.11;58.93;95622.22;4173461;28;20488;-78
2022/12/26 09:41:16;;;;;;;53.42;36.33;;;;;;;8.18;59.75;95617.34;4160352;28;20115;-76
2022/12/26 09:43:25;;;;;;;52.58;35.95;;;;;;;8.33;59.12;95612.69;4174799;28;20460;-77
2022/12/26 09:45:41;;;;;;;62.13;38.58;;;;;;;8.43;58.90;95618.03;4174980;28;20064;-77
2022/12/26 09:48:12;;;;;;;55.45;36.55;;;;;;;7.99;59.81;95617.97;4153170;28;20053;-77
2022/12/26 09:50:23;;;;;;;63.13;37.85;;;;;;;7.81;60.44;95617.63;4149124;28;20341;-78
2022/12/26 09:52:39;;;;;;;63.50;37.72;;;;;;;7.76;60.48;95610.13;4157985;28;20133;-77
2022/12/26 09:54:48;;;;;;;56.38;35.58;;;;;;;7.85;60.93;95603.41;4169080;28;20064;-77
2022/12/26 09:56:50;;;;;;;58.55;35.40;;;;;;;8.24;60.59;95600.34;4183788;28;20235;-78
2022/12/26 09:59:18;;;;;;;52.45;34.30;;;;;;;8.57;59.04;95602.06;4178442;28;20060;-88
2022/12/26 10:01:27;;;;;;;57.47;33.85;;;;;;;8.63;59.09;95601.59;4162849;28;20063;-77
2022/12/26 10:03:29;;;;;;;55.90;33.63;;;;;;;8.91;58.85;95592.31;4161533;28;20079;-77
2022/12/26 10:05:36;;;;;;;52.47;33.60;;;;;;;9.20;57.78;95594.28;4157979;28;20065;-75
2022/12/26 10:07:43;;;;;;;47.83;30.75;;;;;;;9.45;56.90;95589.59;4152288;28;20045;-75
2022/12/26 10:10:14;;;;;;;54.03;33.45;;;;;;;9.61;56.37;95587.31;4173062;28;20111;-76
2022/12/26 10:12:27;;;;;;;43.28;28.17;;;;;;;9.53;55.64;95574.06;4150953;28;20580;-74
2022/12/26 10:14:50;;;;;;;45.63;29.75;;;;;;;9.62;55.91;95581.13;4179356;28;20167;-75
2022/12/26 10:17:02;;;;;;;39.03;26.33;;;;;;;9.67;55.31;95575.50;4179913;28;20488;-76
2022/12/26 10:19:22;;;;;;;40.38;27.17;;;;;;;9.54;54.88;95570.50;4179166;28;20103;-77
2022/12/26 10:21:57;;;;;;;44.20;28.10;;;;;;;9.32;56.03;95574.94;4179057;28;20492;-76
2022/12/26 10:24:11;;;;;;;35.50;22.52;;;;;;;8.84;57.60;95559.81;4178386;28;20152;-76
2022/12/26 10:26:17;;;;;;;33.90;22.13;;;;;;;8.83;57.93;95552.91;4143715;28;20454;-73
2022/12/26 10:28:59;;;;;;;35.22;21.73;;;;;;;8.97;57.71;95557.81;4171658;28;20144;-76
2022/12/26 10:31:10;;;;;;;31.77;21.00;;;;;;;8.81;57.41;95558.25;4096239;28;20173;-74
2022/12/26 10:33:33;;;;;;;33.20;20.92;;;;;;;8.84;58.07;95561.56;4146777;28;20587;-75
2022/12/26 10:35:43;;;;;;;37.17;23.35;;;;;;;8.93;58.12;95553.81;4158812;28;20081;-74
2022/12/26 10:37:46;;;;;;;40.35;25.05;;;;;;;9.21;57.40;95556.72;4174426;28;20441;-73
2022/12/26 10:39:51;;;;;;;37.20;24.90;;;;;;;9.30;56.83;95553.31;4165689;28;20091;-76
2022/12/26 10:41:57;;;;;;;42.35;25.25;;;;;;;9.43;56.20;95548.69;4176787;28;20060;-74
2022/12/26 10:43:59;;;;;;;39.85;24.50;;;;;;;9.32;56.96;95548.78;4145828;28;20405;-73
2022/12/26 10:46:13;;;;;;;41.03;24.77;;;;;;;9.56;56.10;95547.66;4164030;28;20126;-73
2022/12/26 10:48:15;;;;;;;;;;;;;;;9.77;56.10;95547.59;4169007;28;20049;-74
2022/12/26 10:50:26;;;;;;;35.00;22.70;;;;;;;9.91;55.84;95531.50;4164205;28;20268;-76
2022/12/26 10:52:34;;;;;;;28.02;19.52;;;;;;;10.15;54.63;95530.31;4154346;28;20480;-73
2022/12/26 10:54:35;;;;;;;31.00;20.92;;;;;;;10.19;54.57;95537.75;4169690;28;20169;-72
2022/12/26 10:56:37;;;;;;;30.73;20.60;;;;;;;10.31;54.35;95532.44;4173283;28;20056;-74
2022/12/26 10:58:40;;;;;;;31.50;20.75;;;;;;;10.42;53.74;95533.13;4147624;28;20220;-76
2022/12/26 11:00:41;;;;;;;38.42;24.55;;;;;;;10.55;52.63;95537.25;4148924;28;20176;-76
2022/12/26 11:02:43;;;;;;;42.15;23.92;;;;;;;10.51;53.14;95518.38;4169125;28;20493;-74
2022/12/26 11:05:05;;;;;;;37.22;24.33;;;;;;;9.68;55.03;95528.28;4154137;28;20573;-73
2022/12/26 11:07:29;;;;;;;33.03;23.90;;;;;;;9.25;55.92;95518.06;4176738;28;20159;-76
2022/12/26 11:09:41;;;;;;;36.95;23.50;;;;;;;9.36;56.44;95526.66;4174700;28;20059;-73
2022/12/26 11:11:47;;;;;;;35.28;22.45;;;;;;;9.67;55.68;95517.94;4157034;28;20057;-75
2022/12/26 11:13:54;;;;;;;32.67;19.98;;;;;;;9.91;55.03;95520.22;4158259;28;20053;-74
2022/12/26 11:16:03;;;;;;;32.72;19.35;;;;;;;10.19;54.85;95510.75;4158048;28;20076;-74
2022/12/26 11:18:26;;;;;;;27.38;17.77;;;;;;;10.15;54.26;95511.97;4175687;28;20056;-75
2022/12/26 11:20:29;;;;;;;27.65;18.10;;;;;;;10.35;54.06;95505.00;4166213;28;20057;-74
2022/12/26 11:22:31;;;;;;;28.25;17.58;;;;;;;10.66;53.63;95505.66;4174825;28;20060;-74
2022/12/26 11:24:33;;;;;;;27.42;17.58;;;;;;;10.91;52.88;95508.69;4174399;28;20122;-72
2022/12/26 11:26:35;;;;;;;26.70;19.48;;;;;;;11.02;51.88;95490.97;4175252;28;20122;-74
2022/12/26 11:28:37;;;;;;;28.67;17.60;;;;;;;11.00;51.94;95503.41;4175637;28;20052;-73
2022/12/26 11:30:39;;;;;;;32.22;17.77;;;;;;;10.79;52.11;95489.66;4174934;28;20057;-74
2022/12/26 11:32:44;;;;;;;28.25;17.83;;;;;;;10.88;53.21;95498.47;4173449;28;20064;-75
2022/12/26 11:34:46;;;;;;;;;;;;;;;11.09;52.54;95495.66;4175988;28;20045;-73
2022/12/26 11:36:49;;;;;;;25.60;15.50;;;;;;;11.23;51.87;95496.03;4175129;28;19924;-74
2022/12/26 11:38:53;;;;;;;23.27;15.07;;;;;;;11.35;51.50;95493.22;4175110;28;20490;-77
2022/12/26 11:43:17;;;;;;;17.90;13.20;;;;;;;10.59;52.03;95489.69;4172533;28;20049;-76
2022/12/26 11:45:20;;;;;;;;;;;;;;;10.51;52.61;95486.94;4154157;28;20232;-76
2022/12/26 11:47:25;;;;;;;22.70;12.75;;;;;;;10.28;53.56;95475.03;4169123;28;19978;-76
2022/12/26 11:49:39;;;;;;;23.02;11.88;;;;;;;10.17;53.43;95479.44;4152115;28;20526;-74
2022/12/26 11:51:42;;;;;;;;;;;;;;;10.27;53.71;95483.88;4149534;28;20598;-75
2022/12/26 11:53:44;;;;;;;19.55;12.07;;;;;;;10.35;53.51;95477.03;4155139;28;20410;-73
2022/12/26 11:56:03;;;;;;;18.80;11.70;;;;;;;10.55;52.65;95477.81;4159654;28;20119;-75
2022/12/26 11:58:05;;;;;;;18.85;11.88;;;;;;;10.72;52.53;95483.31;4159955;28;20054;-75
2022/12/26 12:00:17;;;;;;;18.92;11.52;;;;;;;10.81;52.24;95470.19;4172189;28;20075;-75
2022/12/26 12:02:25;;;;;;;17.02;11.23;;;;;;;10.40;53.23;95469.56;4140736;28;20575;-73
2022/12/26 12:04:27;;;;;;;18.67;11.15;;;;;;;10.49;52.85;95473.13;4153802;28;20057;-74